sensor_id;sensor_type;location;lat;lon;timestamp;pressure;altitude;pressure_sealevel;temperature;humidity
73952;BME280;62304;47.662;18.324;2022-09-16T00:01:23;99499.44;;;16.97;88.97
73952;BME280;62304;47.662;18.324;2022-09-16T00:04:36;99498.50;;;16.84;89.27
73952;BME280;62304;47.662;18.324;2022-09-16T00:07:50;99511.19;;;16.72;89.57
73952;BME280;62304;47.662;18.324;2022-09-16T00:11:02;99515.69;;;16.66;89.74
73952;BME280;62304;47.662;18.324;2022-09-16T00:14:11;99511.44;;;16.58;89.89
73952;BME280;62304;47.662;18.324;2022-09-16T00:17:23;99500.97;;;16.62;89.83
73952;BME280;62304;47.662;18.324;2022-09-16T00:20:32;99497.16;;;16.72;89.64
73952;BME280;62304;47.662;18.324;2022-09-16T00:23:41;99482.66;;;16.77;89.32
73952;BME280;62304;47.662;18.324;2022-09-16T00:26:53;99486.41;;;16.71;89.34
73952;BME280;62304;47.662;18.324;2022-09-16T00:30:01;99494.53;;;16.65;89.83
73952;BME280;62304;47.662;18.324;2022-09-16T00:33:12;99515.41;;;16.61;90.26
73952;BME280;62304;47.662;18.324;2022-09-16T00:36:24;99514.66;;;16.57;90.50
73952;BME280;62304;47.662;18.324;2022-09-16T00:39:35;99520.72;;;16.55;90.48
73952;BME280;62304;47.662;18.324;2022-09-16T00:42:47;99518.63;;;16.59;90.25
73952;BME280;62304;47.662;18.324;2022-09-16T00:46:03;99529.31;;;16.64;90.22
73952;BME280;62304;47.662;18.324;2022-09-16T00:49:24;99518.78;;;16.72;89.95
73952;BME280;62304;47.662;18.324;2022-09-16T00:52:40;99509.59;;;16.71;89.38
73952;BME280;62304;47.662;18.324;2022-09-16T00:55:55;99503.69;;;16.85;88.49
73952;BME280;62304;47.662;18.324;2022-09-16T00:59:15;99504.56;;;16.82;88.46
73952;BME280;62304;47.662;18.324;2022-09-16T01:02:29;99492.41;;;16.69;88.94
73952;BME280;62304;47.662;18.324;2022-09-16T01:05:39;99494.06;;;16.67;88.91
73952;BME280;62304;47.662;18.324;2022-09-16T01:08:51;99500.31;;;16.74;88.68
73952;BME280;62304;47.662;18.324;2022-09-16T01:12:02;99509.72;;;16.64;88.92
73952;BME280;62304;47.662;18.324;2022-09-16T01:15:15;99520.06;;;16.67;89.15
73952;BME280;62304;47.662;18.324;2022-09-16T01:18:40;99520.91;;;16.64;88.87
73952;BME280;62304;47.662;18.324;2022-09-16T01:40:15;99535.41;;;16.59;88.74
73952;BME280;62304;47.662;18.324;2022-09-16T01:43:41;99536.06;;;16.67;88.64
73952;BME280;62304;47.662;18.324;2022-09-16T01:50:47;99525.38;;;16.62;88.75
73952;BME280;62304;47.662;18.324;2022-09-16T02:00:48;99543.13;;;16.55;89.51
73952;BME280;62304;47.662;18.324;2022-09-16T02:04:11;99548.94;;;16.64;89.20
73952;BME280;62304;47.662;18.324;2022-09-16T02:07:34;99538.78;;;16.70;89.09
73952;BME280;62304;47.662;18.324;2022-09-16T02:10:58;99538.09;;;16.66;88.97
73952;BME280;62304;47.662;18.324;2022-09-16T02:14:19;99518.13;;;16.64;89.24
73952;BME280;62304;47.662;18.324;2022-09-16T02:17:37;99521.94;;;16.54;89.54
73952;BME280;62304;47.662;18.324;2022-09-16T02:20:53;99519.66;;;16.69;89.04
73952;BME280;62304;47.662;18.324;2022-09-16T02:24:15;99525.38;;;16.62;89.05
73952;BME280;62304;47.662;18.324;2022-09-16T02:27:27;99530.03;;;16.49;89.38
73952;BME280;62304;47.662;18.324;2022-09-16T02:30:45;99542.16;;;16.42;89.57
73952;BME280;62304;47.662;18.324;2022-09-16T02:34:07;99537.44;;;16.39;90.02
73952;BME280;62304;47.662;18.324;2022-09-16T02:37:36;99541.31;;;16.45;89.55
73952;BME280;62304;47.662;18.324;2022-09-16T02:40:58;99547.31;;;16.44;89.85
73952;BME280;62304;47.662;18.324;2022-09-16T02:44:10;99563.34;;;16.43;89.68
73952;BME280;62304;47.662;18.324;2022-09-16T02:48:06;99550.56;;;16.42;89.25
73952;BME280;62304;47.662;18.324;2022-09-16T02:58:10;99553.22;;;16.26;88.93
73952;BME280;62304;47.662;18.324;2022-09-16T03:01:22;99554.69;;;16.11;89.56
73952;BME280;62304;47.662;18.324;2022-09-16T03:04:39;99556.22;;;16.16;89.54
73952;BME280;62304;47.662;18.324;2022-09-16T03:07:54;99562.16;;;15.95;90.16
73952;BME280;62304;47.662;18.324;2022-09-16T03:14:52;99549.59;;;15.83;89.99
73952;BME280;62304;47.662;18.324;2022-09-16T03:18:27;99544.72;;;15.87;89.83
73952;BME280;62304;47.662;18.324;2022-09-16T03:21:53;99544.03;;;15.80;89.93
73952;BME280;62304;47.662;18.324;2022-09-16T03:31:59;99534.03;;;16.05;88.31
73952;BME280;62304;47.662;18.324;2022-09-16T03:35:15;99542.03;;;16.03;88.25
73952;BME280;62304;47.662;18.324;2022-09-16T03:38:21;99541.56;;;16.08;87.87
73952;BME280;62304;47.662;18.324;2022-09-16T03:41:27;99546.53;;;15.97;88.08
73952;BME280;62304;47.662;18.324;2022-09-16T03:44:35;99538.03;;;16.04;88.06
73952;BME280;62304;47.662;18.324;2022-09-16T03:47:39;99550.81;;;16.05;87.63
73952;BME280;62304;47.662;18.324;2022-09-16T03:50:42;99555.91;;;15.87;88.01
73952;BME280;62304;47.662;18.324;2022-09-16T03:53:44;99566.69;;;15.62;88.67
73952;BME280;62304;47.662;18.324;2022-09-16T03:56:48;99573.75;;;15.70;88.74
73952;BME280;62304;47.662;18.324;2022-09-16T03:59:51;99582.59;;;15.65;89.11
73952;BME280;62304;47.662;18.324;2022-09-16T04:02:53;99581.78;;;15.68;88.77
73952;BME280;62304;47.662;18.324;2022-09-16T04:05:56;99568.38;;;15.56;88.84
73952;BME280;62304;47.662;18.324;2022-09-16T04:09:03;99569.09;;;15.60;88.61
73952;BME280;62304;47.662;18.324;2022-09-16T04:12:08;99572.84;;;15.77;88.03
73952;BME280;62304;47.662;18.324;2022-09-16T04:15:11;99575.13;;;15.85;87.58
73952;BME280;62304;47.662;18.324;2022-09-16T04:18:14;99573.47;;;15.88;87.65
73952;BME280;62304;47.662;18.324;2022-09-16T04:21:17;99567.06;;;15.87;87.45
73952;BME280;62304;47.662;18.324;2022-09-16T04:24:20;99560.16;;;15.95;87.19
73952;BME280;62304;47.662;18.324;2022-09-16T04:27:25;99561.81;;;15.93;87.09
73952;BME280;62304;47.662;18.324;2022-09-16T04:30:29;99570.31;;;15.86;86.93
73952;BME280;62304;47.662;18.324;2022-09-16T04:33:33;99569.34;;;15.96;86.66
73952;BME280;62304;47.662;18.324;2022-09-16T04:36:37;99574.28;;;15.88;86.32
73952;BME280;62304;47.662;18.324;2022-09-16T04:39:40;99572.72;;;15.84;86.45
73952;BME280;62304;47.662;18.324;2022-09-16T04:42:48;99555.41;;;15.69;86.83
73952;BME280;62304;47.662;18.324;2022-09-16T04:45:50;99551.56;;;15.60;87.08
73952;BME280;62304;47.662;18.324;2022-09-16T04:48:54;99564.03;;;15.55;87.07
73952;BME280;62304;47.662;18.324;2022-09-16T04:51:57;99560.84;;;15.53;87.54
73952;BME280;62304;47.662;18.324;2022-09-16T04:55:01;99562.62;;;15.40;88.47
73952;BME280;62304;47.662;18.324;2022-09-16T04:58:03;99572.22;;;15.39;88.79
73952;BME280;62304;47.662;18.324;2022-09-16T05:01:30;99585.88;;;15.34;88.65
73952;BME280;62304;47.662;18.324;2022-09-16T05:04:30;99568.03;;;15.24;89.13
73952;BME280;62304;47.662;18.324;2022-09-16T05:07:33;99584.03;;;15.20;89.23
73952;BME280;62304;47.662;18.324;2022-09-16T05:10:35;99593.34;;;15.10;89.23
73952;BME280;62304;47.662;18.324;2022-09-16T05:13:39;99590.06;;;15.15;89.41
73952;BME280;62304;47.662;18.324;2022-09-16T05:16:43;99594.12;;;15.11;89.49
73952;BME280;62304;47.662;18.324;2022-09-16T05:19:46;99597.03;;;15.04;89.79
73952;BME280;62304;47.662;18.324;2022-09-16T05:22:49;99590.22;;;15.05;90.03
73952;BME280;62304;47.662;18.324;2022-09-16T05:25:53;99583.13;;;15.00;90.63
73952;BME280;62304;47.662;18.324;2022-09-16T05:28:59;99574.59;;;15.11;90.31
73952;BME280;62304;47.662;18.324;2022-09-16T05:32:03;99577.31;;;15.14;89.85
73952;BME280;62304;47.662;18.324;2022-09-16T05:35:05;99572.97;;;15.13;89.95
73952;BME280;62304;47.662;18.324;2022-09-16T05:38:09;99582.59;;;15.09;90.24
73952;BME280;62304;47.662;18.324;2022-09-16T05:41:11;99586.12;;;15.13;89.96
73952;BME280;62304;47.662;18.324;2022-09-16T05:44:14;99589.81;;;15.06;90.31
73952;BME280;62304;47.662;18.324;2022-09-16T05:47:17;99595.47;;;14.99;90.73
73952;BME280;62304;47.662;18.324;2022-09-16T05:50:20;99600.28;;;14.99;91.13
73952;BME280;62304;47.662;18.324;2022-09-16T05:53:24;99593.88;;;14.98;90.95
73952;BME280;62304;47.662;18.324;2022-09-16T05:56:28;99598.09;;;15.13;90.93
73952;BME280;62304;47.662;18.324;2022-09-16T05:59:31;99586.25;;;15.32;90.49
73952;BME280;62304;47.662;18.324;2022-09-16T06:02:34;99577.03;;;15.39;90.28
73952;BME280;62304;47.662;18.324;2022-09-16T06:05:37;99578.50;;;15.47;90.01
73952;BME280;62304;47.662;18.324;2022-09-16T06:08:47;99580.66;;;15.62;89.53
73952;BME280;62304;47.662;18.324;2022-09-16T06:11:53;99586.25;;;15.62;90.75
73952;BME280;62304;47.662;18.324;2022-09-16T06:15:03;99580.34;;;15.57;90.04
73952;BME280;62304;47.662;18.324;2022-09-16T06:18:06;99587.38;;;15.68;89.89
73952;BME280;62304;47.662;18.324;2022-09-16T06:21:10;99572.94;;;15.96;89.13
73952;BME280;62304;47.662;18.324;2022-09-16T06:24:15;99579.41;;;16.16;88.81
73952;BME280;62304;47.662;18.324;2022-09-16T06:27:18;99583.28;;;16.22;88.18
73952;BME280;62304;47.662;18.324;2022-09-16T06:30:21;99582.84;;;16.24;87.48
73952;BME280;62304;47.662;18.324;2022-09-16T06:33:24;99581.56;;;16.28;87.97
73952;BME280;62304;47.662;18.324;2022-09-16T06:36:32;99585.84;;;16.13;86.35
73952;BME280;62304;47.662;18.324;2022-09-16T06:39:35;99590.97;;;16.41;86.98
73952;BME280;62304;47.662;18.324;2022-09-16T06:42:38;99590.97;;;16.41;85.99
73952;BME280;62304;47.662;18.324;2022-09-16T06:45:43;99583.88;;;16.33;85.45
73952;BME280;62304;47.662;18.324;2022-09-16T06:48:48;99591.97;;;16.28;85.40
73952;BME280;62304;47.662;18.324;2022-09-16T06:51:53;99591.06;;;16.34;85.16
73952;BME280;62304;47.662;18.324;2022-09-16T06:54:56;99594.34;;;16.52;85.00
73952;BME280;62304;47.662;18.324;2022-09-16T06:57:59;99599.78;;;16.40;83.47
73952;BME280;62304;47.662;18.324;2022-09-16T07:01:10;99595.78;;;16.41;83.03
73952;BME280;62304;47.662;18.324;2022-09-16T07:04:13;99601.09;;;16.55;83.24
73952;BME280;62304;47.662;18.324;2022-09-16T07:07:16;99610.31;;;16.55;83.23
73952;BME280;62304;47.662;18.324;2022-09-16T07:10:18;99614.50;;;16.44;81.97
73952;BME280;62304;47.662;18.324;2022-09-16T07:13:21;99608.25;;;16.79;82.60
73952;BME280;62304;47.662;18.324;2022-09-16T07:16:25;99614.09;;;17.07;81.67
73952;BME280;62304;47.662;18.324;2022-09-16T07:19:28;99623.22;;;17.11;79.39
73952;BME280;62304;47.662;18.324;2022-09-16T07:22:31;99618.94;;;17.23;80.21
73952;BME280;62304;47.662;18.324;2022-09-16T07:25:34;99622.41;;;17.30;78.46
73952;BME280;62304;47.662;18.324;2022-09-16T07:28:38;99630.31;;;17.35;78.25
73952;BME280;62304;47.662;18.324;2022-09-16T07:31:42;99626.59;;;17.03;78.45
73952;BME280;62304;47.662;18.324;2022-09-16T07:34:45;99623.78;;;17.22;77.56
73952;BME280;62304;47.662;18.324;2022-09-16T07:37:48;99617.84;;;17.20;76.95
73952;BME280;62304;47.662;18.324;2022-09-16T07:40:51;99623.47;;;17.36;76.29
73952;BME280;62304;47.662;18.324;2022-09-16T07:43:55;99618.66;;;17.56;76.18
73952;BME280;62304;47.662;18.324;2022-09-16T07:47:00;99615.69;;;17.63;75.83
73952;BME280;62304;47.662;18.324;2022-09-16T07:50:07;99609.34;;;17.43;75.00
73952;BME280;62304;47.662;18.324;2022-09-16T07:53:10;99609.53;;;17.52;76.68
73952;BME280;62304;47.662;18.324;2022-09-16T07:56:16;99609.91;;;17.54;71.41
73952;BME280;62304;47.662;18.324;2022-09-16T07:59:19;99612.72;;;17.54;75.11
73952;BME280;62304;47.662;18.324;2022-09-16T08:02:23;99624.09;;;17.63;73.80
73952;BME280;62304;47.662;18.324;2022-09-16T08:05:26;99614.34;;;17.87;74.75
73952;BME280;62304;47.662;18.324;2022-09-16T08:08:29;99602.59;;;17.92;72.95
73952;BME280;62304;47.662;18.324;2022-09-16T08:11:33;99593.16;;;18.34;67.54
73952;BME280;62304;47.662;18.324;2022-09-16T08:14:36;99611.03;;;18.40;68.96
73952;BME280;62304;47.662;18.324;2022-09-16T08:17:39;99614.69;;;18.69;69.42
73952;BME280;62304;47.662;18.324;2022-09-16T08:20:41;99615.13;;;19.90;64.90
73952;BME280;62304;47.662;18.324;2022-09-16T08:23:47;99619.97;;;19.77;62.62
73952;BME280;62304;47.662;18.324;2022-09-16T08:26:49;99611.22;;;20.13;62.72
73952;BME280;62304;47.662;18.324;2022-09-16T08:29:54;99613.66;;;20.36;62.90
73952;BME280;62304;47.662;18.324;2022-09-16T08:32:57;99612.28;;;20.40;60.66
73952;BME280;62304;47.662;18.324;2022-09-16T08:36:03;99616.03;;;21.05;60.21
73952;BME280;62304;47.662;18.324;2022-09-16T08:39:08;99600.28;;;20.95;60.39
73952;BME280;62304;47.662;18.324;2022-09-16T08:46:14;99595.66;;;19.96;57.46
73952;BME280;62304;47.662;18.324;2022-09-16T08:49:33;99612.97;;;19.82;59.01
73952;BME280;62304;47.662;18.324;2022-09-16T08:52:37;99623.28;;;19.35;62.51
73952;BME280;62304;47.662;18.324;2022-09-16T08:55:44;99626.91;;;19.48;62.47
73952;BME280;62304;47.662;18.324;2022-09-16T08:58:54;99626.66;;;19.30;61.73
73952;BME280;62304;47.662;18.324;2022-09-16T09:05:33;99628.56;;;19.05;62.02
73952;BME280;62304;47.662;18.324;2022-09-16T09:12:17;99634.94;;;19.21;61.89
73952;BME280;62304;47.662;18.324;2022-09-16T09:15:45;99622.66;;;19.68;59.78
73952;BME280;62304;47.662;18.324;2022-09-16T09:22:21;99632.00;;;19.78;61.17
73952;BME280;62304;47.662;18.324;2022-09-16T09:42:19;99620.00;;;19.37;59.29
73952;BME280;62304;47.662;18.324;2022-09-16T09:45:29;99605.19;;;20.36;55.99
73952;BME280;62304;47.662;18.324;2022-09-16T09:48:41;99603.28;;;21.96;52.20
73952;BME280;62304;47.662;18.324;2022-09-16T09:51:50;99594.03;;;22.44;51.19
73952;BME280;62304;47.662;18.324;2022-09-16T09:55:00;99590.66;;;21.79;52.26
73952;BME280;62304;47.662;18.324;2022-09-16T10:01:27;99595.13;;;21.15;53.67
73952;BME280;62304;47.662;18.324;2022-09-16T10:04:37;99593.22;;;20.91;53.03
73952;BME280;62304;47.662;18.324;2022-09-16T10:07:40;99597.69;;;20.67;53.30
73952;BME280;62304;47.662;18.324;2022-09-16T10:10:54;99595.63;;;20.67;53.96
73952;BME280;62304;47.662;18.324;2022-09-16T10:13:59;99608.84;;;20.58;55.04
73952;BME280;62304;47.662;18.324;2022-09-16T10:17:10;99606.06;;;20.45;54.60
73952;BME280;62304;47.662;18.324;2022-09-16T10:20:38;99607.16;;;20.60;55.29
73952;BME280;62304;47.662;18.324;2022-09-16T10:23:56;99605.34;;;20.88;53.05
73952;BME280;62304;47.662;18.324;2022-09-16T10:27:14;99595.13;;;21.67;50.92
73952;BME280;62304;47.662;18.324;2022-09-16T10:30:19;99592.78;;;22.05;51.05
73952;BME280;62304;47.662;18.324;2022-09-16T10:33:28;99584.63;;;22.83;47.18
73952;BME280;62304;47.662;18.324;2022-09-16T10:36:33;99581.37;;;24.12;46.04
73952;BME280;62304;47.662;18.324;2022-09-16T10:39:38;99582.00;;;24.40;41.38
73952;BME280;62304;47.662;18.324;2022-09-16T10:42:46;99587.59;;;24.25;44.32
73952;BME280;62304;47.662;18.324;2022-09-16T10:45:51;99583.56;;;24.17;42.45
73952;BME280;62304;47.662;18.324;2022-09-16T10:48:59;99567.81;;;24.87;43.49
73952;BME280;62304;47.662;18.324;2022-09-16T10:52:15;99575.22;;;24.70;42.46
73952;BME280;62304;47.662;18.324;2022-09-16T10:55:31;99570.94;;;25.27;40.35
73952;BME280;62304;47.662;18.324;2022-09-16T10:58:36;99569.50;;;24.93;40.57
73952;BME280;62304;47.662;18.324;2022-09-16T11:11:58;99573.75;;;21.88;46.63
73952;BME280;62304;47.662;18.324;2022-09-16T11:19:25;99556.78;;;21.79;46.39
73952;BME280;62304;47.662;18.324;2022-09-16T11:25:45;99548.63;;;21.81;46.46
73952;BME280;62304;47.662;18.324;2022-09-16T11:39:21;99564.59;;;21.75;47.14
73952;BME280;62304;47.662;18.324;2022-09-16T11:52:22;99557.06;;;21.72;48.54
73952;BME280;62304;47.662;18.324;2022-09-16T11:58:59;99543.78;;;21.60;48.50
73952;BME280;62304;47.662;18.324;2022-09-16T12:02:22;99536.75;;;21.95;48.46
73952;BME280;62304;47.662;18.324;2022-09-16T12:05:35;99523.81;;;22.24;48.11
73952;BME280;62304;47.662;18.324;2022-09-16T12:12:07;99511.34;;;22.04;43.78
73952;BME280;62304;47.662;18.324;2022-09-16T12:15:21;99513.63;;;21.48;46.60
73952;BME280;62304;47.662;18.324;2022-09-16T12:18:35;99515.50;;;21.42;46.20
73952;BME280;62304;47.662;18.324;2022-09-16T12:21:50;99518.75;;;21.31;47.25
73952;BME280;62304;47.662;18.324;2022-09-16T12:25:09;99514.09;;;21.16;49.29
73952;BME280;62304;47.662;18.324;2022-09-16T12:34:37;99503.91;;;21.09;48.45
73952;BME280;62304;47.662;18.324;2022-09-16T12:37:49;99510.44;;;21.06;48.85
73952;BME280;62304;47.662;18.324;2022-09-16T12:58:08;99494.84;;;21.14;49.50
73952;BME280;62304;47.662;18.324;2022-09-16T13:02:19;99501.81;;;21.01;50.61
73952;BME280;62304;47.662;18.324;2022-09-16T13:08:29;99494.59;;;20.57;52.23
73952;BME280;62304;47.662;18.324;2022-09-16T13:11:33;99491.81;;;20.66;50.80
73952;BME280;62304;47.662;18.324;2022-09-16T13:14:58;99493.84;;;20.44;51.14
73952;BME280;62304;47.662;18.324;2022-09-16T13:18:21;99485.59;;;20.49;51.32
73952;BME280;62304;47.662;18.324;2022-09-16T13:21:27;99491.37;;;20.46;51.88
73952;BME280;62304;47.662;18.324;2022-09-16T13:24:37;99485.38;;;20.44;51.73
73952;BME280;62304;47.662;18.324;2022-09-16T13:27:54;99493.38;;;20.45;52.52
73952;BME280;62304;47.662;18.324;2022-09-16T13:34:16;99480.69;;;20.62;53.43
73952;BME280;62304;47.662;18.324;2022-09-16T13:37:25;99475.03;;;20.62;53.79
73952;BME280;62304;47.662;18.324;2022-09-16T13:40:30;99474.28;;;20.62;52.34
73952;BME280;62304;47.662;18.324;2022-09-16T13:46:44;99463.50;;;20.48;53.04
73952;BME280;62304;47.662;18.324;2022-09-16T13:50:16;99458.91;;;20.41;52.53
73952;BME280;62304;47.662;18.324;2022-09-16T13:53:32;99446.75;;;20.44;53.19
73952;BME280;62304;47.662;18.324;2022-09-16T13:56:51;99438.88;;;20.61;52.82
73952;BME280;62304;47.662;18.324;2022-09-16T14:00:09;99438.47;;;20.50;51.73
73952;BME280;62304;47.662;18.324;2022-09-16T14:09:59;99424.22;;;20.23;52.44
73952;BME280;62304;47.662;18.324;2022-09-16T14:13:19;99425.56;;;20.06;52.27
73952;BME280;62304;47.662;18.324;2022-09-16T14:16:27;99429.53;;;20.08;54.32
73952;BME280;62304;47.662;18.324;2022-09-16T14:19:34;99430.56;;;20.15;54.37
73952;BME280;62304;47.662;18.324;2022-09-16T14:22:39;99421.91;;;20.30;53.48
73952;BME280;62304;47.662;18.324;2022-09-16T14:25:45;99426.50;;;20.37;54.76
73952;BME280;62304;47.662;18.324;2022-09-16T14:28:50;99424.78;;;20.39;54.24
73952;BME280;62304;47.662;18.324;2022-09-16T14:32:02;99422.09;;;20.36;54.73
73952;BME280;62304;47.662;18.324;2022-09-16T14:35:18;99434.81;;;20.19;54.65
73952;BME280;62304;47.662;18.324;2022-09-16T14:38:32;99436.37;;;20.20;55.27
73952;BME280;62304;47.662;18.324;2022-09-16T14:41:51;99427.97;;;20.08;56.68
73952;BME280;62304;47.662;18.324;2022-09-16T14:44:55;99444.87;;;19.95;55.66
73952;BME280;62304;47.662;18.324;2022-09-16T14:48:04;99442.97;;;19.92;55.60
73952;BME280;62304;47.662;18.324;2022-09-16T14:51:21;99432.72;;;19.98;55.40
73952;BME280;62304;47.662;18.324;2022-09-16T14:54:26;99431.03;;;19.88;56.85
73952;BME280;62304;47.662;18.324;2022-09-16T14:57:29;99436.69;;;19.75;58.18
73952;BME280;62304;47.662;18.324;2022-09-16T15:00:44;99431.41;;;19.77;56.72
73952;BME280;62304;47.662;18.324;2022-09-16T15:07:04;99442.31;;;19.75;56.43
73952;BME280;62304;47.662;18.324;2022-09-16T15:10:25;99451.56;;;19.76;56.01
73952;BME280;62304;47.662;18.324;2022-09-16T15:13:42;99464.97;;;19.72;58.38
73952;BME280;62304;47.662;18.324;2022-09-16T15:16:54;99447.88;;;19.67;57.09
73952;BME280;62304;47.662;18.324;2022-09-16T15:20:01;99449.00;;;19.57;56.25
73952;BME280;62304;47.662;18.324;2022-09-16T15:23:05;99442.81;;;19.49;57.03
73952;BME280;62304;47.662;18.324;2022-09-16T15:26:51;99428.69;;;19.28;59.39
73952;BME280;62304;47.662;18.324;2022-09-16T15:29:52;99429.69;;;19.21;57.53
73952;BME280;62304;47.662;18.324;2022-09-16T15:32:57;99432.59;;;19.17;60.75
73952;BME280;62304;47.662;18.324;2022-09-16T15:36:01;99433.38;;;19.06;61.94
73952;BME280;62304;47.662;18.324;2022-09-16T15:39:19;99433.59;;;18.86;60.88
73952;BME280;62304;47.662;18.324;2022-09-16T15:42:23;99430.09;;;18.82;60.99
73952;BME280;62304;47.662;18.324;2022-09-16T15:45:27;99433.56;;;18.74;63.65
73952;BME280;62304;47.662;18.324;2022-09-16T15:48:35;99431.31;;;18.69;61.27
73952;BME280;62304;47.662;18.324;2022-09-16T15:51:48;99433.19;;;18.59;60.97
73952;BME280;62304;47.662;18.324;2022-09-16T15:54:58;99441.47;;;18.50;60.87
73952;BME280;62304;47.662;18.324;2022-09-16T15:58:09;99439.56;;;18.47;60.04
73952;BME280;62304;47.662;18.324;2022-09-16T16:01:19;99430.19;;;18.38;61.11
73952;BME280;62304;47.662;18.324;2022-09-16T16:04:33;99421.22;;;18.43;59.88
73952;BME280;62304;47.662;18.324;2022-09-16T16:11:08;99425.47;;;18.35;61.30
73952;BME280;62304;47.662;18.324;2022-09-16T16:14:12;99409.81;;;18.21;61.21
73952;BME280;62304;47.662;18.324;2022-09-16T16:17:18;99402.91;;;18.10;61.06
73952;BME280;62304;47.662;18.324;2022-09-16T16:20:22;99408.28;;;18.04;61.21
73952;BME280;62304;47.662;18.324;2022-09-16T16:23:26;99397.31;;;17.94;62.61
73952;BME280;62304;47.662;18.324;2022-09-16T16:26:29;99385.44;;;17.90;62.97
73952;BME280;62304;47.662;18.324;2022-09-16T16:29:33;99370.38;;;17.84;65.51
73952;BME280;62304;47.662;18.324;2022-09-16T16:32:36;99381.22;;;17.82;66.23
73952;BME280;62304;47.662;18.324;2022-09-16T16:35:40;99398.34;;;17.71;66.80
73952;BME280;62304;47.662;18.324;2022-09-16T16:38:44;99397.66;;;17.67;68.60
73952;BME280;62304;47.662;18.324;2022-09-16T16:41:48;99388.00;;;17.68;67.94
73952;BME280;62304;47.662;18.324;2022-09-16T16:44:50;99396.50;;;17.65;68.91
73952;BME280;62304;47.662;18.324;2022-09-16T16:47:53;99393.19;;;17.54;68.95
73952;BME280;62304;47.662;18.324;2022-09-16T16:51:00;99390.06;;;17.52;70.24
73952;BME280;62304;47.662;18.324;2022-09-16T16:54:05;99400.13;;;17.49;71.22
73952;BME280;62304;47.662;18.324;2022-09-16T16:57:09;99410.31;;;17.43;71.61
73952;BME280;62304;47.662;18.324;2022-09-16T17:00:12;99413.63;;;17.38;72.67
73952;BME280;62304;47.662;18.324;2022-09-16T17:03:16;99413.78;;;17.31;72.47
73952;BME280;62304;47.662;18.324;2022-09-16T17:06:19;99401.59;;;17.22;72.20
73952;BME280;62304;47.662;18.324;2022-09-16T17:09:22;99398.87;;;17.18;72.32
73952;BME280;62304;47.662;18.324;2022-09-16T17:12:25;99402.28;;;17.26;72.85
73952;BME280;62304;47.662;18.324;2022-09-16T17:15:28;99402.81;;;17.21;73.04
73952;BME280;62304;47.662;18.324;2022-09-16T17:18:36;99419.03;;;17.29;72.97
73952;BME280;62304;47.662;18.324;2022-09-16T17:21:39;99431.47;;;17.28;73.71
73952;BME280;62304;47.662;18.324;2022-09-16T17:24:42;99424.19;;;17.31;73.32
73952;BME280;62304;47.662;18.324;2022-09-16T17:27:46;99426.81;;;17.38;72.83
73952;BME280;62304;47.662;18.324;2022-09-16T17:30:49;99409.59;;;17.39;71.89
73952;BME280;62304;47.662;18.324;2022-09-16T17:33:55;99402.22;;;17.45;71.39
73952;BME280;62304;47.662;18.324;2022-09-16T17:36:59;99391.94;;;17.71;70.69
73952;BME280;62304;47.662;18.324;2022-09-16T17:40:03;99402.22;;;17.61;71.38
73952;BME280;62304;47.662;18.324;2022-09-16T17:43:06;99396.94;;;17.63;70.46
73952;BME280;62304;47.662;18.324;2022-09-16T17:46:13;99400.28;;;17.58;70.70
73952;BME280;62304;47.662;18.324;2022-09-16T17:49:22;99411.59;;;17.55;71.22
73952;BME280;62304;47.662;18.324;2022-09-16T17:52:25;99426.22;;;17.46;71.96
73952;BME280;62304;47.662;18.324;2022-09-16T17:55:31;99411.84;;;17.28;71.97
73952;BME280;62304;47.662;18.324;2022-09-16T17:58:40;99409.03;;;17.28;71.94
73952;BME280;62304;47.662;18.324;2022-09-16T18:01:48;99408.31;;;17.24;71.85
73952;BME280;62304;47.662;18.324;2022-09-16T18:04:57;99414.03;;;17.21;72.71
73952;BME280;62304;47.662;18.324;2022-09-16T18:08:03;99428.97;;;17.14;73.17
73952;BME280;62304;47.662;18.324;2022-09-16T18:11:14;99419.44;;;17.12;73.24
73952;BME280;62304;47.662;18.324;2022-09-16T18:14:24;99435.91;;;17.10;73.16
73952;BME280;62304;47.662;18.324;2022-09-16T18:17:34;99426.72;;;17.09;73.85
73952;BME280;62304;47.662;18.324;2022-09-16T18:20:43;99433.28;;;17.03;74.04
73952;BME280;62304;47.662;18.324;2022-09-16T18:23:59;99453.22;;;17.05;75.12
73952;BME280;62304;47.662;18.324;2022-09-16T18:27:08;99439.22;;;17.05;74.94
73952;BME280;62304;47.662;18.324;2022-09-16T18:30:18;99433.19;;;17.06;74.24
73952;BME280;62304;47.662;18.324;2022-09-16T18:33:27;99420.72;;;16.91;74.94
73952;BME280;62304;47.662;18.324;2022-09-16T18:36:36;99391.66;;;16.85;75.34
73952;BME280;62304;47.662;18.324;2022-09-16T18:39:42;99400.94;;;16.82;75.62
73952;BME280;62304;47.662;18.324;2022-09-16T18:42:53;99408.34;;;16.73;76.92
73952;BME280;62304;47.662;18.324;2022-09-16T18:46:09;99419.63;;;16.69;77.10
73952;BME280;62304;47.662;18.324;2022-09-16T18:49:18;99403.19;;;16.71;76.70
73952;BME280;62304;47.662;18.324;2022-09-16T18:52:27;99409.56;;;16.72;76.53
73952;BME280;62304;47.662;18.324;2022-09-16T18:55:37;99407.59;;;16.88;75.78
73952;BME280;62304;47.662;18.324;2022-09-16T18:58:45;99421.31;;;16.83;76.26
73952;BME280;62304;47.662;18.324;2022-09-16T19:02:15;99434.97;;;16.81;76.07
73952;BME280;62304;47.662;18.324;2022-09-16T19:05:20;99427.88;;;16.76;76.55
73952;BME280;62304;47.662;18.324;2022-09-16T19:08:27;99422.19;;;16.80;76.68
73952;BME280;62304;47.662;18.324;2022-09-16T19:11:35;99432.34;;;16.90;76.47
73952;BME280;62304;47.662;18.324;2022-09-16T19:14:52;99439.63;;;16.87;76.39
73952;BME280;62304;47.662;18.324;2022-09-16T19:18:01;99430.31;;;16.74;77.60
73952;BME280;62304;47.662;18.324;2022-09-16T19:21:15;99446.09;;;16.84;76.96